UDYZ Airport Information

Runway Information
Runway 09 Length 12629 ft width 184 ft
Elevation 2800 ft Threshold 0 ft Heading 90
Runway 27 Length 12629 ft Width 184 ft
Elevation 2838 ft Threshold 0 ft Heading 270
Airport Frequencies
Type APP Name YEREVAN AP Frequency 126 MHZ
Type ATIS Name ATIS Frequency 119.5 MHZ
Type GND Name YEREVAN GN Frequency 119 MHZ
Type TWR Name YEREVAN TW Frequency 128 MHZ
Airport Navaids
Airport Weather Information & NOTAM
ADDS - METARS form results

(2214 UTC 16 February 2020)
Data provider http://aviationweather.gov/metar/data/
 
METAR text: UDYZ 162200Z 32001KT 9999 NSC 01/M07 Q1026 R09/010070 NOSIG
Conditions at: UDYZ (ZVARTNOTS , AM) observed 2200 UTC 16 February 2020
Temperature: 1.0°C (34°F)
Dewpoint: -7.0°C (19°F) [RH = 55%]
Pressure (altimeter): 30.30 inches Hg (1026.0 mb)
Winds: from the NW (320 degrees) at 1 MPH (1 knots; 0.5 m/s)
Visibility: 6 or more miles (10+ km)
Ceiling: at least 12,000 feet AGL
Clouds: sky clear below 12,000 feet AGL
Weather: no significant weather observed at this time

METAR text: UDYZ 162130Z 00000KT 9999 NSC 01/M07 Q1026 R09/010070 NOSIG
Conditions at: UDYZ (ZVARTNOTS , AM) observed 2130 UTC 16 February 2020
Temperature: 1.0°C (34°F)
Dewpoint: -7.0°C (19°F) [RH = 55%]
Pressure (altimeter): 30.30 inches Hg (1026.0 mb)
Winds: calm
Visibility: 6 or more miles (10+ km)
Ceiling: at least 12,000 feet AGL
Clouds: sky clear below 12,000 feet AGL
Weather: no significant weather observed at this time

Forecast for: UDYZ (ZVARTNOTS , AM)
Text: TAF UDYZ 161705Z 1618/1718 VRB06KT 9999 SCT040
Forecast period: 1800 UTC 16 February 2020 to 1800 UTC 17 February 2020
Forecast type: FROM: standard forecast or significant change
Winds: variable direction winds at 7 MPH (6 knots; 3.1 m/s)
Visibility: 6 or more miles 10+ km)
Ceiling: at least 12,000 feet AGL
Clouds: scattered clouds at 4000 feet AGL
Weather: no significant weather forecast for this period
Text: TEMPO 1700/1715 1000 SN BR SCT007 OVC020
Forecast period: 0000 to 1500 UTC 17 February 2020
Forecast type: TEMPORARY: The following changes expected for less than half the time period
Visibility: 0.62 miles (1.00 km)
Ceiling: 2000 feet AGL
Clouds: scattered clouds at 700 feet AGL
overcast cloud deck at 2000 feet AGL
Weather: SN BR  (moderate snow, mist)